Mare Siculum — ICOW — position and weather

sailwx.info

Track history (hours):
 
Tides and Currents Weather Stations Pressure Air Temp Water Temp Dewpoint Dewpoint Depression Visibility Wind Speed Wind Dir Waves Ship Positions

Mare Siculum

Last reported at 2017-Nov-29 06:09 UTC. Time now 2017-Dec-18 14:25 UTC.
Position S 30°21' E 031°06'.
Warning: this ship's position is 19 days out of date.

Length 274 m; draft 9 m.

Type: Tanker. MMSI: 247301100.

Date/timePositionNaut miles runAvg speedWind from/ knotsBaromVisibWave heightAir tempDewpointWater temp
2017-Nov-29 06:09S 30°21' E 031°06'212.7
2017-Nov-29 06:00S 30°19' E 031°06'612.4
2017-Nov-29 05:30S 30°14' E 031°09'611.8
2017-Nov-29 05:00S 30°08' E 031°12'611.0
2017-Nov-29 04:30S 30°03' E 031°13'611.2
2017-Nov-29 04:00S 29°57' E 031°11'510.9
2017-Nov-29 03:30S 29°52' E 031°09'5 9.4
2017-Nov-29 03:00S 29°52' E 031°04'1 2.6
2017-Nov-29 02:30S 29°52' E 031°02'0 0.1
2017-Nov-29 01:57S 29°52' E 031°02'0 0.0
2017-Nov-29 01:30S 29°52' E 031°02'0 0.0
2017-Nov-29 01:00S 29°52' E 031°02'0 0.0
2017-Nov-29 00:30S 29°52' E 031°02'0 0.0
2017-Nov-28 23:57S 29°52' E 031°02'0 0.0
2017-Nov-28 23:27S 29°52' E 031°02'0 0.0
2017-Nov-28 22:57S 29°52' E 031°02'0 0.0
2017-Nov-28 22:30S 29°52' E 031°02'0 0.0
2017-Nov-28 22:00S 29°52' E 031°02'0 0.0
2017-Nov-28 21:27S 29°52' E 031°02'0 0.0
2017-Nov-28 21:00S 29°52' E 031°02'0 0.0
2017-Nov-28 20:30S 29°52' E 031°02'0 0.0
2017-Nov-28 20:00S 29°52' E 031°02'0 0.0
2017-Nov-28 19:30S 29°52' E 031°02'0 0.0
2017-Nov-28 19:00S 29°52' E 031°02'0 0.0
2017-Nov-28 18:30S 29°52' E 031°02'0 0.0
2017-Nov-28 18:00S 29°52' E 031°02'0 0.0
2017-Nov-28 17:30S 29°52' E 031°02'0 0.0
2017-Nov-28 17:00S 29°52' E 031°02'0 0.0
2017-Nov-28 16:30S 29°52' E 031°02'0 0.0
2017-Nov-28 16:00S 29°52' E 031°02'0 0.0
2017-Nov-28 15:00S 29°52' E 031°02'0 0.0
2017-Nov-28 14:30S 29°52' E 031°02'0 0.5
2017-Nov-28 14:01S 29°53' E 031°02'3 6.7
2017-Nov-28 13:31S 29°50' E 031°05'2 4.2
2017-Nov-28 13:00S 29°49' E 031°07'1 1.5
2017-Nov-28 12:31S 29°48' E 031°07'1 2.8
2017-Nov-28 12:01S 29°48' E 031°09'2 4.1
2017-Nov-28 11:30S 29°46' E 031°11'0 0.3
2017-Nov-28 11:00S 29°46' E 031°11'0 0.0
2017-Nov-28 10:30S 29°46' E 031°11'0 0.0
2017-Nov-28 10:00S 29°46' E 031°11'0 0.5
2017-Nov-28 09:30S 29°46' E 031°11'2 3.6
2017-Nov-28 09:00S 29°48' E 031°09'3 5.8
2017-Nov-28 08:30S 29°51' E 031°09'3 5.4
2017-Nov-28 08:00S 29°53' E 031°09'1 1.6
2017-Nov-28 07:30S 29°54' E 031°10'1 1.4
2017-Nov-28 07:00S 29°53' E 031°10'1 1.9
2017-Nov-28 06:30S 29°53' E 031°09'2 4.0
2017-Nov-28 06:00S 29°52' E 031°07'1 1.7
2017-Nov-28 05:30S 29°52' E 031°08'0 0.5
2017-Nov-28 04:30S 29°52' E 031°08'0 0.2
2017-Nov-28 04:00S 29°52' E 031°08'0 0.4
2017-Nov-28 03:30S 29°52' E 031°08'0 0.7
2017-Nov-28 03:00S 29°52' E 031°08'2 4.4
2017-Nov-28 02:30S 29°50' E 031°09'4 7.6
2017-Nov-28 02:00S 29°46' E 031°09'1 2.1
2017-Nov-28 01:29S 29°45' E 031°09'0 0.1
2017-Nov-28 00:59S 29°45' E 031°09'0 0.0
2017-Nov-28 00:29S 29°45' E 031°09'0 0.0
2017-Nov-27 23:59S 29°45' E 031°09'0 0.0
2017-Nov-27 23:29S 29°45' E 031°09'0 0.0
2017-Nov-27 22:59S 29°45' E 031°09'0 0.0
2017-Nov-27 22:29S 29°45' E 031°09'0 0.0
2017-Nov-27 21:59S 29°45' E 031°09'0 0.1
2017-Nov-27 21:29S 29°45' E 031°09'0 0.0
2017-Nov-27 20:59S 29°45' E 031°09'0 0.1
2017-Nov-27 20:29S 29°45' E 031°09'0 0.0
2017-Nov-27 19:59S 29°45' E 031°09'0 0.0
2017-Nov-27 19:29S 29°45' E 031°09'0 0.0
2017-Nov-27 18:59S 29°45' E 031°09'0 0.0
2017-Nov-27 18:29S 29°45' E 031°09'0 0.0
2017-Nov-27 17:59S 29°45' E 031°09'0 0.0
2017-Nov-27 17:29S 29°45' E 031°09'0 0.0
2017-Nov-27 16:59S 29°45' E 031°09'0 0.1
2017-Nov-27 16:29S 29°45' E 031°09'0 0.0
2017-Nov-27 15:59S 29°45' E 031°09'0 0.0
2017-Nov-27 15:29S 29°45' E 031°09'0 0.0
2017-Nov-27 14:59S 29°45' E 031°09'0 0.1
2017-Nov-27 14:29S 29°45' E 031°09'0 0.0
2017-Nov-27 13:59S 29°45' E 031°09'0 0.0
2017-Nov-27 13:29S 29°45' E 031°09'0 0.0
2017-Nov-27 12:59S 29°45' E 031°09'0 0.0
2017-Nov-27 12:29S 29°45' E 031°09'0 0.0
2017-Nov-27 11:59S 29°45' E 031°09'0 0.0
2017-Nov-27 11:29S 29°45' E 031°09'0 0.1
2017-Nov-27 10:59S 29°45' E 031°09'0 0.0
2017-Nov-27 10:26S 29°45' E 031°09'0 0.0
2017-Nov-27 09:59S 29°45' E 031°09'0 0.2
2017-Nov-27 09:29S 29°45' E 031°10'0 0.1
2017-Nov-27 08:59S 29°45' E 031°09'0 0.0
2017-Nov-27 08:29S 29°45' E 031°09'0 0.1
2017-Nov-27 07:59S 29°45' E 031°10'0 0.1
2017-Nov-27 07:29S 29°45' E 031°10'0 0.0
2017-Nov-27 06:59S 29°45' E 031°10'0 0.1
2017-Nov-27 06:29S 29°45' E 031°10'0 0.1
2017-Nov-27 05:59S 29°45' E 031°10'0 0.0
2017-Nov-27 05:29S 29°45' E 031°10'0 0.1
2017-Nov-27 04:59S 29°45' E 031°10'0 0.2
2017-Nov-27 04:29S 29°45' E 031°10'0 0.1
2017-Nov-27 03:59S 29°45' E 031°10'0 0.1
2017-Nov-27 03:29S 29°45' E 031°10'0 0.2
2017-Nov-27 02:59S 29°45' E 031°09'0 0.2
2017-Nov-27 02:29S 29°45' E 031°10'0 0.1
2017-Nov-27 01:59S 29°45' E 031°10'0 0.1
2017-Nov-27 01:26S 29°45' E 031°10'0 0.1
2017-Nov-27 00:59S 29°45' E 031°10'0 0.0
2017-Nov-27 00:29S 29°45' E 031°10'0 0.2
2017-Nov-26 23:59S 29°45' E 031°10'0 0.3
2017-Nov-26 23:29S 29°45' E 031°09'0 0.2
2017-Nov-26 22:59S 29°45' E 031°10'0 0.0
2017-Nov-26 22:29S 29°45' E 031°10'0 0.1
2017-Nov-26 21:59S 29°45' E 031°10'0 0.1
2017-Nov-26 21:29S 29°45' E 031°10'0 0.0
2017-Nov-26 20:59S 29°45' E 031°10'0 0.1
2017-Nov-26 20:29S 29°45' E 031°10'0 0.1
2017-Nov-26 19:59S 29°45' E 031°10'0 0.0
2017-Nov-26 19:26S 29°45' E 031°10'0 0.1
2017-Nov-26 18:59S 29°45' E 031°10'0 0.0
2017-Nov-26 18:29S 29°45' E 031°09'0 0.1
2017-Nov-26 17:59S 29°45' E 031°10'0 0.1
2017-Nov-26 17:29S 29°45' E 031°10'0 0.1
2017-Nov-26 16:59S 29°45' E 031°09'0 0.1
2017-Nov-26 16:29S 29°45' E 031°09'0 0.0
2017-Nov-26 15:59S 29°45' E 031°09'0 0.1
2017-Nov-26 15:26S 29°45' E 031°10'0 0.1
2017-Nov-26 14:59S 29°45' E 031°09'0 0.2
2017-Nov-26 14:29S 29°45' E 031°09'0 0.2
2017-Nov-26 13:59S 29°45' E 031°09'0 0.1
2017-Nov-26 13:29S 29°45' E 031°09'0 0.0
2017-Nov-26 12:23S 29°45' E 031°09'0 0.0
2017-Nov-26 11:59S 29°45' E 031°09'0 0.0
2017-Nov-26 11:29S 29°45' E 031°09'0 0.0
2017-Nov-26 10:59S 29°45' E 031°09'0 0.0
2017-Nov-26 10:29S 29°45' E 031°09'0 0.0
2017-Nov-26 09:59S 29°45' E 031°09'0 0.0
2017-Nov-26 09:29S 29°45' E 031°09'0 0.1
2017-Nov-26 08:59S 29°45' E 031°09'0 0.0
2017-Nov-26 08:29S 29°45' E 031°09'0 0.0
2017-Nov-26 07:59S 29°45' E 031°09'0 0.0
2017-Nov-26 07:29S 29°45' E 031°09'0 0.0
2017-Nov-26 06:59S 29°45' E 031°09'0 0.0
2017-Nov-26 06:29S 29°45' E 031°09'0 0.0
2017-Nov-26 05:59S 29°45' E 031°09'0 0.0
2017-Nov-26 05:29S 29°45' E 031°09'0 0.0
2017-Nov-26 04:59S 29°45' E 031°09'0 0.1
2017-Nov-26 04:29S 29°45' E 031°09'0 0.1
2017-Nov-26 03:59S 29°45' E 031°09'0 0.0
2017-Nov-26 03:29S 29°45' E 031°09'0 0.1
2017-Nov-26 02:59S 29°45' E 031°09'0 0.0
2017-Nov-26 02:29S 29°45' E 031°09'0 0.1
2017-Nov-26 01:59S 29°45' E 031°09'0 0.0
2017-Nov-26 01:29S 29°45' E 031°09'0 0.1
2017-Nov-26 00:59S 29°45' E 031°09'0 0.0
2017-Nov-26 00:29S 29°45' E 031°09'0 0.0
2017-Nov-25 23:59S 29°45' E 031°09'0 0.0
2017-Nov-25 23:29S 29°45' E 031°09'0 0.0
2017-Nov-25 22:59S 29°45' E 031°09'0 0.0
2017-Nov-25 22:29S 29°45' E 031°09'0 0.0
2017-Nov-25 21:59S 29°45' E 031°09'0 0.0
2017-Nov-25 21:26S 29°45' E 031°09'0 0.0
2017-Nov-25 20:59S 29°45' E 031°09'0 0.0
2017-Nov-25 20:29S 29°45' E 031°09'0 0.0
2017-Nov-25 19:59S 29°45' E 031°09'0 0.0
2017-Nov-25 19:29S 29°45' E 031°09'0 0.0
2017-Nov-25 18:59S 29°45' E 031°09'0 0.1
2017-Nov-25 18:29S 29°45' E 031°09'0 0.0
2017-Nov-25 17:59S 29°45' E 031°09'0 0.0
2017-Nov-25 17:29S 29°45' E 031°09'0 0.0
2017-Nov-25 16:59S 29°45' E 031°09'0 0.0
2017-Nov-25 16:29S 29°45' E 031°09'0 0.0
2017-Nov-25 15:59S 29°45' E 031°09'0 0.0
2017-Nov-25 15:29S 29°45' E 031°09'0 0.0
2017-Nov-25 14:59S 29°45' E 031°09'0 0.0
2017-Nov-25 14:29S 29°45' E 031°09'0 0.0
2017-Nov-25 13:59S 29°45' E 031°09'0 0.0
2017-Nov-25 13:29S 29°45' E 031°09'0 0.0
2017-Nov-25 12:59S 29°45' E 031°09'0 0.0
2017-Nov-25 12:29S 29°45' E 031°09'0 0.0
2017-Nov-25 11:59S 29°45' E 031°09'0 0.0
2017-Nov-25 11:29S 29°45' E 031°09'0 0.0
2017-Nov-25 10:59S 29°45' E 031°09'0 0.1
2017-Nov-25 10:29S 29°45' E 031°09'0 0.0
2017-Nov-25 09:59S 29°45' E 031°09'0 0.0
2017-Nov-25 09:29S 29°45' E 031°09'0 0.1
2017-Nov-25 08:59S 29°45' E 031°09'0 0.0
2017-Nov-25 08:29S 29°45' E 031°09'0 0.0
2017-Nov-25 07:59S 29°45' E 031°09'0 0.0
2017-Nov-25 07:29S 29°45' E 031°09'0 0.0
2017-Nov-25 06:59S 29°45' E 031°09'0 0.0
2017-Nov-25 06:29S 29°45' E 031°09'0 0.0
2017-Nov-25 05:59S 29°45' E 031°09'0 0.0
2017-Nov-25 05:29S 29°45' E 031°09'0 0.0
2017-Nov-25 04:59S 29°45' E 031°09'0 0.0
2017-Nov-25 04:29S 29°45' E 031°09'0 0.1
2017-Nov-25 03:59S 29°45' E 031°09'0 0.1
2017-Nov-25 03:29S 29°45' E 031°09'0 0.1
2017-Nov-25 02:59S 29°45' E 031°09'0 0.1
2017-Nov-25 02:29S 29°45' E 031°09'0 0.0
2017-Nov-25 01:59S 29°45' E 031°09'0 0.1
2017-Nov-25 01:29S 29°45' E 031°09'0 0.0
2017-Nov-25 00:59S 29°45' E 031°09'0 0.1
2017-Nov-25 00:29S 29°45' E 031°09'0 0.1
2017-Nov-24 23:59S 29°45' E 031°09'0 0.1
2017-Nov-24 23:29S 29°45' E 031°09'0 0.1
2017-Nov-24 22:59S 29°45' E 031°09'0 0.1
2017-Nov-24 22:29S 29°45' E 031°09'0 0.3
2017-Nov-24 21:59S 29°45' E 031°09'0 0.1
2017-Nov-24 21:29S 29°45' E 031°09'0 0.2
2017-Nov-24 20:59S 29°45' E 031°09'0 0.0
2017-Nov-24 20:29S 29°45' E 031°09'0 0.1
2017-Nov-24 19:59S 29°45' E 031°09'0 0.1
2017-Nov-24 19:29S 29°45' E 031°09'0 0.0
2017-Nov-24 18:59S 29°45' E 031°09'0 0.0
2017-Nov-24 18:29S 29°45' E 031°09'0 0.1
2017-Nov-24 17:59S 29°45' E 031°09'0 0.1
2017-Nov-24 17:29S 29°45' E 031°09'0 0.0
2017-Nov-24 16:59S 29°45' E 031°09'0 0.1
2017-Nov-24 16:29S 29°45' E 031°09'0 0.1
2017-Nov-24 15:59S 29°45' E 031°09'0 0.1
2017-Nov-24 15:29S 29°45' E 031°09'0 0.0
2017-Nov-24 14:59S 29°45' E 031°09'0 0.0
2017-Nov-24 14:29S 29°45' E 031°09'0 0.0
2017-Nov-24 13:59S 29°45' E 031°09'0 0.0
2017-Nov-24 13:29S 29°45' E 031°09'0 0.0
2017-Nov-24 12:59S 29°45' E 031°09'0 0.0
2017-Nov-24 12:29S 29°45' E 031°09'0 0.0
2017-Nov-24 11:59S 29°45' E 031°09'0 0.0
2017-Nov-24 11:29S 29°45' E 031°09'0 0.0
2017-Nov-24 10:59S 29°45' E 031°09'0 0.0
2017-Nov-24 10:29S 29°45' E 031°09'0 0.0
2017-Nov-24 09:59S 29°45' E 031°09'0 0.0
2017-Nov-24 09:29S 29°45' E 031°09'0 0.0
2017-Nov-24 08:59S 29°45' E 031°09'0 0.0
2017-Nov-24 08:29S 29°45' E 031°09'0 0.0
2017-Nov-24 07:59S 29°45' E 031°09'0 0.0
2017-Nov-24 07:29S 29°45' E 031°09'0 0.0
2017-Nov-24 06:59S 29°45' E 031°09'0 0.0
2017-Nov-24 06:29S 29°45' E 031°09'0 0.0
2017-Nov-24 05:59S 29°45' E 031°09'0 0.0
2017-Nov-24 05:29S 29°45' E 031°09'0 0.1
2017-Nov-24 04:59S 29°45' E 031°09'0 0.1
2017-Nov-24 04:29S 29°45' E 031°09'0 0.0
2017-Nov-24 03:59S 29°45' E 031°09'0 0.0
2017-Nov-24 03:29S 29°45' E 031°09'0 0.0
2017-Nov-24 02:59S 29°45' E 031°09'0 0.0
2017-Nov-24 02:29S 29°45' E 031°09'0 0.0
2017-Nov-24 01:59S 29°45' E 031°09'0 0.0
2017-Nov-24 01:29S 29°45' E 031°09'0 0.0
2017-Nov-24 00:59S 29°45' E 031°09'0 0.1
2017-Nov-24 00:29S 29°45' E 031°09'0 0.0
2017-Nov-23 23:59S 29°45' E 031°09'0 0.0
2017-Nov-23 23:29S 29°45' E 031°09'0 0.1
2017-Nov-23 22:59S 29°45' E 031°09'0 0.0
2017-Nov-23 22:29S 29°45' E 031°09'0 0.0
2017-Nov-23 21:59S 29°45' E 031°09'0 0.0
2017-Nov-23 21:29S 29°45' E 031°09'0 0.1
2017-Nov-23 20:59S 29°45' E 031°09'0 0.0
2017-Nov-23 20:29S 29°45' E 031°09'0 0.0
2017-Nov-23 19:59S 29°45' E 031°09'0 0.1
2017-Nov-23 19:29S 29°45' E 031°09'0 0.1
2017-Nov-23 18:59S 29°45' E 031°09'0 0.1
2017-Nov-23 18:29S 29°45' E 031°09'0 0.0
2017-Nov-23 17:59S 29°45' E 031°09'0 0.1
2017-Nov-23 17:29S 29°45' E 031°09'0 0.0
2017-Nov-23 16:59S 29°45' E 031°09'0 0.1
2017-Nov-23 16:29S 29°45' E 031°09'0 0.1
2017-Nov-23 15:59S 29°45' E 031°09'0 0.0
2017-Nov-23 15:29S 29°45' E 031°09'0 0.0
2017-Nov-23 14:59S 29°45' E 031°09'0 0.0
2017-Nov-23 14:23S 29°45' E 031°09'0 0.0
2017-Nov-23 13:59S 29°45' E 031°09'0 0.0
2017-Nov-23 13:29S 29°45' E 031°09'0 0.0
2017-Nov-23 12:59S 29°45' E 031°09'0 0.0
2017-Nov-23 12:29S 29°45' E 031°09'0 0.0
2017-Nov-23 11:59S 29°45' E 031°09'0 0.0
2017-Nov-23 11:29S 29°45' E 031°09'0 0.0
2017-Nov-23 10:59S 29°45' E 031°09'0 0.0
2017-Nov-23 10:29S 29°45' E 031°09'0 0.0
2017-Nov-23 09:59S 29°45' E 031°09'0 0.0
2017-Nov-23 09:29S 29°45' E 031°09'0 0.0
2017-Nov-23 08:59S 29°45' E 031°09'0 0.0
2017-Nov-23 08:29S 29°45' E 031°09'0 0.0
2017-Nov-23 07:59S 29°45' E 031°09'0 0.0
2017-Nov-23 07:29S 29°45' E 031°09'0 0.0
2017-Nov-23 06:59S 29°45' E 031°09'0 0.0
2017-Nov-23 06:29S 29°45' E 031°09'0 0.0
2017-Nov-23 05:59S 29°45' E 031°09'0 0.0
2017-Nov-23 05:29S 29°45' E 031°09'0 0.0
2017-Nov-23 04:59S 29°45' E 031°09'0 0.0
2017-Nov-23 04:29S 29°45' E 031°09'0 0.0
2017-Nov-23 03:59S 29°45' E 031°09'0 0.0
2017-Nov-23 03:29S 29°45' E 031°09'0 0.0
2017-Nov-23 02:59S 29°45' E 031°09'0 0.1
2017-Nov-23 02:29S 29°45' E 031°09'0 0.0
2017-Nov-23 01:59S 29°45' E 031°09'0 0.1
2017-Nov-23 01:29S 29°45' E 031°09'0 0.1
2017-Nov-23 00:59S 29°45' E 031°10'0 0.0
2017-Nov-23 00:11S 29°45' E 031°10'0 0.1
2017-Nov-22 23:59S 29°45' E 031°10'0 0.0
2017-Nov-22 23:29S 29°45' E 031°10'0 0.1
2017-Nov-22 22:59S 29°45' E 031°09'0 0.1
2017-Nov-22 22:29S 29°45' E 031°10'0 0.0
2017-Nov-22 21:59S 29°45' E 031°10'0 0.0
2017-Nov-22 21:29S 29°45' E 031°10'0 0.1
2017-Nov-22 20:59S 29°45' E 031°10'0 0.1
2017-Nov-22 20:29S 29°45' E 031°09'0 0.1
2017-Nov-22 19:59S 29°45' E 031°10'0 0.0
2017-Nov-22 19:29S 29°45' E 031°10'  
2017-Nov-20 00:29S 29°45' E 031°09'0 0.1
2017-Nov-19 23:59S 29°45' E 031°09'0 0.1
2017-Nov-19 23:29S 29°45' E 031°09'0 0.0
2017-Nov-19 22:59S 29°45' E 031°09'0 0.1
2017-Nov-19 22:29S 29°45' E 031°09'0 0.1
2017-Nov-19 21:59S 29°45' E 031°09'0 0.0
2017-Nov-19 21:29S 29°45' E 031°09'0 0.0
2017-Nov-19 20:59S 29°45' E 031°09'0 0.0
2017-Nov-19 20:29S 29°45' E 031°09'0 0.1
2017-Nov-19 19:59S 29°45' E 031°09'0 0.1
2017-Nov-19 19:29S 29°45' E 031°09'0 0.0
2017-Nov-19 18:59S 29°45' E 031°09'0 0.0
2017-Nov-19 18:29S 29°45' E 031°09'0 0.0
2017-Nov-19 17:53S 29°45' E 031°09'0 0.1
2017-Nov-19 17:29S 29°45' E 031°09'0 0.0
2017-Nov-19 16:59S 29°45' E 031°09'0 0.1
2017-Nov-19 16:29S 29°45' E 031°09'0 0.1
2017-Nov-19 15:59S 29°45' E 031°09'0 0.0
2017-Nov-19 15:29S 29°45' E 031°09'0 0.0
2017-Nov-19 14:59S 29°45' E 031°09'0 0.0
2017-Nov-19 14:29S 29°45' E 031°09'0 0.0
2017-Nov-19 13:59S 29°45' E 031°09'0 0.0
2017-Nov-19 13:29S 29°45' E 031°09'0 0.0
2017-Nov-19 12:59S 29°45' E 031°09'0 0.0
2017-Nov-19 12:29S 29°45' E 031°09'0 0.0
2017-Nov-19 11:59S 29°45' E 031°09'0 0.1
2017-Nov-19 11:29S 29°45' E 031°09'0 0.0
2017-Nov-19 10:59S 29°45' E 031°09'0 0.0
2017-Nov-19 10:29S 29°45' E 031°09'0 0.1
2017-Nov-19 09:59S 29°45' E 031°09'0 0.0
2017-Nov-19 09:29S 29°45' E 031°09'0 0.0
2017-Nov-19 08:59S 29°45' E 031°09'0 0.0
2017-Nov-19 08:29S 29°45' E 031°09'0 0.0
2017-Nov-19 07:59S 29°45' E 031°09'0 0.0
2017-Nov-19 07:29S 29°45' E 031°09'0 0.0
2017-Nov-19 06:59S 29°45' E 031°09'0 0.0
2017-Nov-19 06:29S 29°45' E 031°09'  
Track history (hours):
 
Tides and Currents Weather Stations Pressure Air Temp Water Temp Dewpoint Dewpoint Depression Visibility Wind Speed Wind Dir Waves Ship Positions

Mare Siculum

Last reported at 2017-Nov-29 06:09 UTC. Time now 2017-Dec-18 14:25 UTC.
Position S 30°21' E 031°06'.
Warning: this ship's position is 19 days out of date.

Length 274 m; draft 9 m.

Type: Tanker. MMSI: 247301100.

Date/timePositionNaut miles runAvg speedWind from/ knotsBaromVisibWave heightAir tempDewpointWater temp
2017-Nov-29 06:09S 30°21' E 031°06'212.7
2017-Nov-29 06:00S 30°19' E 031°06'612.4
2017-Nov-29 05:30S 30°14' E 031°09'611.8
2017-Nov-29 05:00S 30°08' E 031°12'611.0
2017-Nov-29 04:30S 30°03' E 031°13'611.2
2017-Nov-29 04:00S 29°57' E 031°11'510.9
2017-Nov-29 03:30S 29°52' E 031°09'5 9.4
2017-Nov-29 03:00S 29°52' E 031°04'1 2.6
2017-Nov-29 02:30S 29°52' E 031°02'0 0.1
2017-Nov-29 01:57S 29°52' E 031°02'0 0.0
2017-Nov-29 01:30S 29°52' E 031°02'0 0.0
2017-Nov-29 01:00S 29°52' E 031°02'0 0.0
2017-Nov-29 00:30S 29°52' E 031°02'0 0.0
2017-Nov-28 23:57S 29°52' E 031°02'0 0.0
2017-Nov-28 23:27S 29°52' E 031°02'0 0.0
2017-Nov-28 22:57S 29°52' E 031°02'0 0.0
2017-Nov-28 22:30S 29°52' E 031°02'0 0.0
2017-Nov-28 22:00S 29°52' E 031°02'0 0.0
2017-Nov-28 21:27S 29°52' E 031°02'0 0.0
2017-Nov-28 21:00S 29°52' E 031°02'0 0.0
2017-Nov-28 20:30S 29°52' E 031°02'0 0.0
2017-Nov-28 20:00S 29°52' E 031°02'0 0.0
2017-Nov-28 19:30S 29°52' E 031°02'0 0.0
2017-Nov-28 19:00S 29°52' E 031°02'0 0.0
2017-Nov-28 18:30S 29°52' E 031°02'0 0.0
2017-Nov-28 18:00S 29°52' E 031°02'0 0.0
2017-Nov-28 17:30S 29°52' E 031°02'0 0.0
2017-Nov-28 17:00S 29°52' E 031°02'0 0.0
2017-Nov-28 16:30S 29°52' E 031°02'0 0.0
2017-Nov-28 16:00S 29°52' E 031°02'0 0.0
2017-Nov-28 15:00S 29°52' E 031°02'0 0.0
2017-Nov-28 14:30S 29°52' E 031°02'0 0.5
2017-Nov-28 14:01S 29°53' E 031°02'3 6.7
2017-Nov-28 13:31S 29°50' E 031°05'2 4.2
2017-Nov-28 13:00S 29°49' E 031°07'1 1.5
2017-Nov-28 12:31S 29°48' E 031°07'1 2.8
2017-Nov-28 12:01S 29°48' E 031°09'2 4.1
2017-Nov-28 11:30S 29°46' E 031°11'0 0.3
2017-Nov-28 11:00S 29°46' E 031°11'0 0.0
2017-Nov-28 10:30S 29°46' E 031°11'0 0.0
2017-Nov-28 10:00S 29°46' E 031°11'0 0.5
2017-Nov-28 09:30S 29°46' E 031°11'2 3.6
2017-Nov-28 09:00S 29°48' E 031°09'3 5.8
2017-Nov-28 08:30S 29°51' E 031°09'3 5.4
2017-Nov-28 08:00S 29°53' E 031°09'1 1.6
2017-Nov-28 07:30S 29°54' E 031°10'1 1.4
2017-Nov-28 07:00S 29°53' E 031°10'1 1.9
2017-Nov-28 06:30S 29°53' E 031°09'2 4.0
2017-Nov-28 06:00S 29°52' E 031°07'1 1.7
2017-Nov-28 05:30S 29°52' E 031°08'0 0.5
2017-Nov-28 04:30S 29°52' E 031°08'0 0.2
2017-Nov-28 04:00S 29°52' E 031°08'0 0.4
2017-Nov-28 03:30S 29°52' E 031°08'0 0.7
2017-Nov-28 03:00S 29°52' E 031°08'2 4.4
2017-Nov-28 02:30S 29°50' E 031°09'4 7.6
2017-Nov-28 02:00S 29°46' E 031°09'1 2.1
2017-Nov-28 01:29S 29°45' E 031°09'0 0.1
2017-Nov-28 00:59S 29°45' E 031°09'0 0.0
2017-Nov-28 00:29S 29°45' E 031°09'0 0.0
2017-Nov-27 23:59S 29°45' E 031°09'0 0.0
2017-Nov-27 23:29S 29°45' E 031°09'0 0.0
2017-Nov-27 22:59S 29°45' E 031°09'0 0.0
2017-Nov-27 22:29S 29°45' E 031°09'0 0.0
2017-Nov-27 21:59S 29°45' E 031°09'0 0.1
2017-Nov-27 21:29S 29°45' E 031°09'0 0.0
2017-Nov-27 20:59S 29°45' E 031°09'0 0.1
2017-Nov-27 20:29S 29°45' E 031°09'0 0.0
2017-Nov-27 19:59S 29°45' E 031°09'0 0.0
2017-Nov-27 19:29S 29°45' E 031°09'0 0.0
2017-Nov-27 18:59S 29°45' E 031°09'0 0.0
2017-Nov-27 18:29S 29°45' E 031°09'0 0.0
2017-Nov-27 17:59S 29°45' E 031°09'0 0.0
2017-Nov-27 17:29S 29°45' E 031°09'0 0.0
2017-Nov-27 16:59S 29°45' E 031°09'0 0.1
2017-Nov-27 16:29S 29°45' E 031°09'0 0.0
2017-Nov-27 15:59S 29°45' E 031°09'0 0.0
2017-Nov-27 15:29S 29°45' E 031°09'0 0.0
2017-Nov-27 14:59S 29°45' E 031°09'0 0.1
2017-Nov-27 14:29S 29°45' E 031°09'0 0.0
2017-Nov-27 13:59S 29°45' E 031°09'0 0.0
2017-Nov-27 13:29S 29°45' E 031°09'0 0.0
2017-Nov-27 12:59S 29°45' E 031°09'0 0.0
2017-Nov-27 12:29S 29°45' E 031°09'0 0.0
2017-Nov-27 11:59S 29°45' E 031°09'0 0.0
2017-Nov-27 11:29S 29°45' E 031°09'0 0.1
2017-Nov-27 10:59S 29°45' E 031°09'0 0.0
2017-Nov-27 10:26S 29°45' E 031°09'0 0.0
2017-Nov-27 09:59S 29°45' E 031°09'0 0.2
2017-Nov-27 09:29S 29°45' E 031°10'0 0.1
2017-Nov-27 08:59S 29°45' E 031°09'0 0.0
2017-Nov-27 08:29S 29°45' E 031°09'0 0.1
2017-Nov-27 07:59S 29°45' E 031°10'0 0.1
2017-Nov-27 07:29S 29°45' E 031°10'0 0.0
2017-Nov-27 06:59S 29°45' E 031°10'0 0.1
2017-Nov-27 06:29S 29°45' E 031°10'0 0.1
2017-Nov-27 05:59S 29°45' E 031°10'0 0.0
2017-Nov-27 05:29S 29°45' E 031°10'0 0.1
2017-Nov-27 04:59S 29°45' E 031°10'0 0.2
2017-Nov-27 04:29S 29°45' E 031°10'0 0.1
2017-Nov-27 03:59S 29°45' E 031°10'0 0.1
2017-Nov-27 03:29S 29°45' E 031°10'0 0.2
2017-Nov-27 02:59S 29°45' E 031°09'0 0.2
2017-Nov-27 02:29S 29°45' E 031°10'0 0.1
2017-Nov-27 01:59S 29°45' E 031°10'0 0.1
2017-Nov-27 01:26S 29°45' E 031°10'0 0.1
2017-Nov-27 00:59S 29°45' E 031°10'0 0.0
2017-Nov-27 00:29S 29°45' E 031°10'0 0.2
2017-Nov-26 23:59S 29°45' E 031°10'0 0.3
2017-Nov-26 23:29S 29°45' E 031°09'0 0.2
2017-Nov-26 22:59S 29°45' E 031°10'0 0.0
2017-Nov-26 22:29S 29°45' E 031°10'0 0.1
2017-Nov-26 21:59S 29°45' E 031°10'0 0.1
2017-Nov-26 21:29S 29°45' E 031°10'0 0.0
2017-Nov-26 20:59S 29°45' E 031°10'0 0.1
2017-Nov-26 20:29S 29°45' E 031°10'0 0.1
2017-Nov-26 19:59S 29°45' E 031°10'0 0.0
2017-Nov-26 19:26S 29°45' E 031°10'0 0.1
2017-Nov-26 18:59S 29°45' E 031°10'0 0.0
2017-Nov-26 18:29S 29°45' E 031°09'0 0.1
2017-Nov-26 17:59S 29°45' E 031°10'0 0.1
2017-Nov-26 17:29S 29°45' E 031°10'0 0.1
2017-Nov-26 16:59S 29°45' E 031°09'0 0.1
2017-Nov-26 16:29S 29°45' E 031°09'0 0.0
2017-Nov-26 15:59S 29°45' E 031°09'0 0.1
2017-Nov-26 15:26S 29°45' E 031°10'0 0.1
2017-Nov-26 14:59S 29°45' E 031°09'0 0.2
2017-Nov-26 14:29S 29°45' E 031°09'0 0.2
2017-Nov-26 13:59S 29°45' E 031°09'0 0.1
2017-Nov-26 13:29S 29°45' E 031°09'0 0.0
2017-Nov-26 12:23S 29°45' E 031°09'0 0.0
2017-Nov-26 11:59S 29°45' E 031°09'0 0.0
2017-Nov-26 11:29S 29°45' E 031°09'0 0.0
2017-Nov-26 10:59S 29°45' E 031°09'0 0.0
2017-Nov-26 10:29S 29°45' E 031°09'0 0.0
2017-Nov-26 09:59S 29°45' E 031°09'0 0.0
2017-Nov-26 09:29S 29°45' E 031°09'0 0.1
2017-Nov-26 08:59S 29°45' E 031°09'0 0.0
2017-Nov-26 08:29S 29°45' E 031°09'0 0.0
2017-Nov-26 07:59S 29°45' E 031°09'0 0.0
2017-Nov-26 07:29S 29°45' E 031°09'0 0.0
2017-Nov-26 06:59S 29°45' E 031°09'0 0.0
2017-Nov-26 06:29S 29°45' E 031°09'0 0.0
2017-Nov-26 05:59S 29°45' E 031°09'0 0.0
2017-Nov-26 05:29S 29°45' E 031°09'0 0.0
2017-Nov-26 04:59S 29°45' E 031°09'0 0.1
2017-Nov-26 04:29S 29°45' E 031°09'0 0.1
2017-Nov-26 03:59S 29°45' E 031°09'0 0.0
2017-Nov-26 03:29S 29°45' E 031°09'0 0.1
2017-Nov-26 02:59S 29°45' E 031°09'0 0.0
2017-Nov-26 02:29S 29°45' E 031°09'0 0.1
2017-Nov-26 01:59S 29°45' E 031°09'0 0.0
2017-Nov-26 01:29S 29°45' E 031°09'0 0.1
2017-Nov-26 00:59S 29°45' E 031°09'0 0.0
2017-Nov-26 00:29S 29°45' E 031°09'0 0.0
2017-Nov-25 23:59S 29°45' E 031°09'0 0.0
2017-Nov-25 23:29S 29°45' E 031°09'0 0.0
2017-Nov-25 22:59S 29°45' E 031°09'0 0.0
2017-Nov-25 22:29S 29°45' E 031°09'0 0.0
2017-Nov-25 21:59S 29°45' E 031°09'0 0.0
2017-Nov-25 21:26S 29°45' E 031°09'0 0.0
2017-Nov-25 20:59S 29°45' E 031°09'0 0.0
2017-Nov-25 20:29S 29°45' E 031°09'0 0.0
2017-Nov-25 19:59S 29°45' E 031°09'0 0.0
2017-Nov-25 19:29S 29°45' E 031°09'0 0.0
2017-Nov-25 18:59S 29°45' E 031°09'0 0.1
2017-Nov-25 18:29S 29°45' E 031°09'0 0.0
2017-Nov-25 17:59S 29°45' E 031°09'0 0.0
2017-Nov-25 17:29S 29°45' E 031°09'0 0.0
2017-Nov-25 16:59S 29°45' E 031°09'0 0.0
2017-Nov-25 16:29S 29°45' E 031°09'0 0.0
2017-Nov-25 15:59S 29°45' E 031°09'0 0.0
2017-Nov-25 15:29S 29°45' E 031°09'0 0.0
2017-Nov-25 14:59S 29°45' E 031°09'0 0.0
2017-Nov-25 14:29S 29°45' E 031°09'0 0.0
2017-Nov-25 13:59S 29°45' E 031°09'0 0.0
2017-Nov-25 13:29S 29°45' E 031°09'0 0.0
2017-Nov-25 12:59S 29°45' E 031°09'0 0.0
2017-Nov-25 12:29S 29°45' E 031°09'0 0.0
2017-Nov-25 11:59S 29°45' E 031°09'0 0.0
2017-Nov-25 11:29S 29°45' E 031°09'0 0.0
2017-Nov-25 10:59S 29°45' E 031°09'0 0.1
2017-Nov-25 10:29S 29°45' E 031°09'0 0.0
2017-Nov-25 09:59S 29°45' E 031°09'0 0.0
2017-Nov-25 09:29S 29°45' E 031°09'0 0.1
2017-Nov-25 08:59S 29°45' E 031°09'0 0.0
2017-Nov-25 08:29S 29°45' E 031°09'0 0.0
2017-Nov-25 07:59S 29°45' E 031°09'0 0.0
2017-Nov-25 07:29S 29°45' E 031°09'0 0.0
2017-Nov-25 06:59S 29°45' E 031°09'0 0.0
2017-Nov-25 06:29S 29°45' E 031°09'0 0.0
2017-Nov-25 05:59S 29°45' E 031°09'0 0.0
2017-Nov-25 05:29S 29°45' E 031°09'0 0.0
2017-Nov-25 04:59S 29°45' E 031°09'0 0.0
2017-Nov-25 04:29S 29°45' E 031°09'0 0.1
2017-Nov-25 03:59S 29°45' E 031°09'0 0.1
2017-Nov-25 03:29S 29°45' E 031°09'0 0.1
2017-Nov-25 02:59S 29°45' E 031°09'0 0.1
2017-Nov-25 02:29S 29°45' E 031°09'0 0.0
2017-Nov-25 01:59S 29°45' E 031°09'0 0.1
2017-Nov-25 01:29S 29°45' E 031°09'0 0.0
2017-Nov-25 00:59S 29°45' E 031°09'0 0.1
2017-Nov-25 00:29S 29°45' E 031°09'0 0.1
2017-Nov-24 23:59S 29°45' E 031°09'0 0.1
2017-Nov-24 23:29S 29°45' E 031°09'0 0.1
2017-Nov-24 22:59S 29°45' E 031°09'0 0.1
2017-Nov-24 22:29S 29°45' E 031°09'0 0.3
2017-Nov-24 21:59S 29°45' E 031°09'0 0.1
2017-Nov-24 21:29S 29°45' E 031°09'0 0.2
2017-Nov-24 20:59S 29°45' E 031°09'0 0.0
2017-Nov-24 20:29S 29°45' E 031°09'0 0.1
2017-Nov-24 19:59S 29°45' E 031°09'0 0.1
2017-Nov-24 19:29S 29°45' E 031°09'0 0.0
2017-Nov-24 18:59S 29°45' E 031°09'0 0.0
2017-Nov-24 18:29S 29°45' E 031°09'0 0.1
2017-Nov-24 17:59S 29°45' E 031°09'0 0.1
2017-Nov-24 17:29S 29°45' E 031°09'0 0.0
2017-Nov-24 16:59S 29°45' E 031°09'0 0.1
2017-Nov-24 16:29S 29°45' E 031°09'0 0.1
2017-Nov-24 15:59S 29°45' E 031°09'0 0.1
2017-Nov-24 15:29S 29°45' E 031°09'0 0.0
2017-Nov-24 14:59S 29°45' E 031°09'0 0.0
2017-Nov-24 14:29S 29°45' E 031°09'0 0.0
2017-Nov-24 13:59S 29°45' E 031°09'0 0.0
2017-Nov-24 13:29S 29°45' E 031°09'0 0.0
2017-Nov-24 12:59S 29°45' E 031°09'0 0.0
2017-Nov-24 12:29S 29°45' E 031°09'0 0.0
2017-Nov-24 11:59S 29°45' E 031°09'0 0.0
2017-Nov-24 11:29S 29°45' E 031°09'0 0.0
2017-Nov-24 10:59S 29°45' E 031°09'0 0.0
2017-Nov-24 10:29S 29°45' E 031°09'0 0.0
2017-Nov-24 09:59S 29°45' E 031°09'0 0.0
2017-Nov-24 09:29S 29°45' E 031°09'0 0.0
2017-Nov-24 08:59S 29°45' E 031°09'0 0.0
2017-Nov-24 08:29S 29°45' E 031°09'0 0.0
2017-Nov-24 07:59S 29°45' E 031°09'0 0.0
2017-Nov-24 07:29S 29°45' E 031°09'0 0.0
2017-Nov-24 06:59S 29°45' E 031°09'0 0.0
2017-Nov-24 06:29S 29°45' E 031°09'0 0.0
2017-Nov-24 05:59S 29°45' E 031°09'0 0.0
2017-Nov-24 05:29S 29°45' E 031°09'0 0.1
2017-Nov-24 04:59S 29°45' E 031°09'0 0.1
2017-Nov-24 04:29S 29°45' E 031°09'0 0.0
2017-Nov-24 03:59S 29°45' E 031°09'0 0.0
2017-Nov-24 03:29S 29°45' E 031°09'0 0.0
2017-Nov-24 02:59S 29°45' E 031°09'0 0.0
2017-Nov-24 02:29S 29°45' E 031°09'0 0.0
2017-Nov-24 01:59S 29°45' E 031°09'0 0.0
2017-Nov-24 01:29S 29°45' E 031°09'0 0.0
2017-Nov-24 00:59S 29°45' E 031°09'0 0.1
2017-Nov-24 00:29S 29°45' E 031°09'0 0.0
2017-Nov-23 23:59S 29°45' E 031°09'0 0.0
2017-Nov-23 23:29S 29°45' E 031°09'0 0.1
2017-Nov-23 22:59S 29°45' E 031°09'0 0.0
2017-Nov-23 22:29S 29°45' E 031°09'0 0.0
2017-Nov-23 21:59S 29°45' E 031°09'0 0.0
2017-Nov-23 21:29S 29°45' E 031°09'0 0.1
2017-Nov-23 20:59S 29°45' E 031°09'0 0.0
2017-Nov-23 20:29S 29°45' E 031°09'0 0.0
2017-Nov-23 19:59S 29°45' E 031°09'0 0.1
2017-Nov-23 19:29S 29°45' E 031°09'0 0.1
2017-Nov-23 18:59S 29°45' E 031°09'0 0.1
2017-Nov-23 18:29S 29°45' E 031°09'0 0.0
2017-Nov-23 17:59S 29°45' E 031°09'0 0.1
2017-Nov-23 17:29S 29°45' E 031°09'0 0.0
2017-Nov-23 16:59S 29°45' E 031°09'0 0.1
2017-Nov-23 16:29S 29°45' E 031°09'0 0.1
2017-Nov-23 15:59S 29°45' E 031°09'0 0.0
2017-Nov-23 15:29S 29°45' E 031°09'0 0.0
2017-Nov-23 14:59S 29°45' E 031°09'0 0.0
2017-Nov-23 14:23S 29°45' E 031°09'0 0.0
2017-Nov-23 13:59S 29°45' E 031°09'0 0.0
2017-Nov-23 13:29S 29°45' E 031°09'0 0.0
2017-Nov-23 12:59S 29°45' E 031°09'0 0.0
2017-Nov-23 12:29S 29°45' E 031°09'0 0.0
2017-Nov-23 11:59S 29°45' E 031°09'0 0.0
2017-Nov-23 11:29S 29°45' E 031°09'0 0.0
2017-Nov-23 10:59S 29°45' E 031°09'0 0.0
2017-Nov-23 10:29S 29°45' E 031°09'0 0.0
2017-Nov-23 09:59S 29°45' E 031°09'0 0.0
2017-Nov-23 09:29S 29°45' E 031°09'0 0.0
2017-Nov-23 08:59S 29°45' E 031°09'0 0.0
2017-Nov-23 08:29S 29°45' E 031°09'0 0.0
2017-Nov-23 07:59S 29°45' E 031°09'0 0.0
2017-Nov-23 07:29S 29°45' E 031°09'0 0.0
2017-Nov-23 06:59S 29°45' E 031°09'0 0.0
2017-Nov-23 06:29S 29°45' E 031°09'0 0.0
2017-Nov-23 05:59S 29°45' E 031°09'0 0.0
2017-Nov-23 05:29S 29°45' E 031°09'0 0.0
2017-Nov-23 04:59S 29°45' E 031°09'0 0.0
2017-Nov-23 04:29S 29°45' E 031°09'0 0.0
2017-Nov-23 03:59S 29°45' E 031°09'0 0.0
2017-Nov-23 03:29S 29°45' E 031°09'0 0.0
2017-Nov-23 02:59S 29°45' E 031°09'0 0.1
2017-Nov-23 02:29S 29°45' E 031°09'0 0.0
2017-Nov-23 01:59S 29°45' E 031°09'0 0.1
2017-Nov-23 01:29S 29°45' E 031°09'0 0.1
2017-Nov-23 00:59S 29°45' E 031°10'0 0.0
2017-Nov-23 00:11S 29°45' E 031°10'0 0.1
2017-Nov-22 23:59S 29°45' E 031°10'0 0.0
2017-Nov-22 23:29S 29°45' E 031°10'0 0.1
2017-Nov-22 22:59S 29°45' E 031°09'0 0.1
2017-Nov-22 22:29S 29°45' E 031°10'0 0.0
2017-Nov-22 21:59S 29°45' E 031°10'0 0.0
2017-Nov-22 21:29S 29°45' E 031°10'0 0.1
2017-Nov-22 20:59S 29°45' E 031°10'0 0.1
2017-Nov-22 20:29S 29°45' E 031°09'0 0.1
2017-Nov-22 19:59S 29°45' E 031°10'0 0.0
2017-Nov-22 19:29S 29°45' E 031°10'  
2017-Nov-20 00:29S 29°45' E 031°09'0 0.1
2017-Nov-19 23:59S 29°45' E 031°09'0 0.1
2017-Nov-19 23:29S 29°45' E 031°09'0 0.0
2017-Nov-19 22:59S 29°45' E 031°09'0 0.1
2017-Nov-19 22:29S 29°45' E 031°09'0 0.1
2017-Nov-19 21:59S 29°45' E 031°09'0 0.0
2017-Nov-19 21:29S 29°45' E 031°09'0 0.0
2017-Nov-19 20:59S 29°45' E 031°09'0 0.0
2017-Nov-19 20:29S 29°45' E 031°09'0 0.1
2017-Nov-19 19:59S 29°45' E 031°09'0 0.1
2017-Nov-19 19:29S 29°45' E 031°09'0 0.0
2017-Nov-19 18:59S 29°45' E 031°09'0 0.0
2017-Nov-19 18:29S 29°45' E 031°09'0 0.0
2017-Nov-19 17:53S 29°45' E 031°09'0 0.1
2017-Nov-19 17:29S 29°45' E 031°09'0 0.0
2017-Nov-19 16:59S 29°45' E 031°09'0 0.1
2017-Nov-19 16:29S 29°45' E 031°09'0 0.1
2017-Nov-19 15:59S 29°45' E 031°09'0 0.0
2017-Nov-19 15:29S 29°45' E 031°09'0 0.0
2017-Nov-19 14:59S 29°45' E 031°09'0 0.0
2017-Nov-19 14:29S 29°45' E 031°09'0 0.0
2017-Nov-19 13:59S 29°45' E 031°09'0 0.0
2017-Nov-19 13:29S 29°45' E 031°09'0 0.0
2017-Nov-19 12:59S 29°45' E 031°09'0 0.0
2017-Nov-19 12:29S 29°45' E 031°09'0 0.0
2017-Nov-19 11:59S 29°45' E 031°09'0 0.1
2017-Nov-19 11:29S 29°45' E 031°09'0 0.0
2017-Nov-19 10:59S 29°45' E 031°09'0 0.0
2017-Nov-19 10:29S 29°45' E 031°09'0 0.1
2017-Nov-19 09:59S 29°45' E 031°09'0 0.0
2017-Nov-19 09:29S 29°45' E 031°09'0 0.0
2017-Nov-19 08:59S 29°45' E 031°09'0 0.0
2017-Nov-19 08:29S 29°45' E 031°09'0 0.0
2017-Nov-19 07:59S 29°45' E 031°09'0 0.0
2017-Nov-19 07:29S 29°45' E 031°09'0 0.0
2017-Nov-19 06:59S 29°45' E 031°09'0 0.0
2017-Nov-19 06:29S 29°45' E 031°09'  

Dump ship's entire track history